sensor_id;sensor_type;location;lat;lon;timestamp;temperature;humidity
20700;DHT22;10511;51.232;9.420;2023-11-22T00:01:50;2.80;99.90
20700;DHT22;10511;51.232;9.420;2023-11-22T00:04:16;2.80;99.90
20700;DHT22;10511;51.232;9.420;2023-11-22T00:06:45;2.80;99.90
20700;DHT22;10511;51.232;9.420;2023-11-22T00:09:13;2.70;99.90
20700;DHT22;10511;51.232;9.420;2023-11-22T00:11:41;2.70;99.90
20700;DHT22;10511;51.232;9.420;2023-11-22T00:14:08;2.60;99.90
20700;DHT22;10511;51.232;9.420;2023-11-22T00:16:35;2.50;99.90
20700;DHT22;10511;51.232;9.420;2023-11-22T00:19:03;2.50;99.90
20700;DHT22;10511;51.232;9.420;2023-11-22T00:21:31;2.40;99.90
20700;DHT22;10511;51.232;9.420;2023-11-22T00:23:59;2.40;99.90
20700;DHT22;10511;51.232;9.420;2023-11-22T00:26:26;2.30;99.90
20700;DHT22;10511;51.232;9.420;2023-11-22T00:28:53;2.30;99.90
20700;DHT22;10511;51.232;9.420;2023-11-22T00:31:20;2.30;99.90
20700;DHT22;10511;51.232;9.420;2023-11-22T00:33:47;2.30;99.90
20700;DHT22;10511;51.232;9.420;2023-11-22T00:36:14;2.20;99.90
20700;DHT22;10511;51.232;9.420;2023-11-22T00:38:42;2.20;99.90
20700;DHT22;10511;51.232;9.420;2023-11-22T00:41:11;2.20;99.90
20700;DHT22;10511;51.232;9.420;2023-11-22T00:43:40;2.10;99.90
20700;DHT22;10511;51.232;9.420;2023-11-22T00:46:07;2.10;99.90
20700;DHT22;10511;51.232;9.420;2023-11-22T00:48:34;2.10;99.90
20700;DHT22;10511;51.232;9.420;2023-11-22T00:51:01;2.10;99.90
20700;DHT22;10511;51.232;9.420;2023-11-22T00:53:34;2.00;99.90
20700;DHT22;10511;51.232;9.420;2023-11-22T00:56:02;2.00;99.90
20700;DHT22;10511;51.232;9.420;2023-11-22T00:58:30;2.00;99.90
20700;DHT22;10511;51.232;9.420;2023-11-22T01:00:58;1.90;99.90
20700;DHT22;10511;51.232;9.420;2023-11-22T01:03:25;1.80;99.90
20700;DHT22;10511;51.232;9.420;2023-11-22T01:05:52;1.80;99.90
20700;DHT22;10511;51.232;9.420;2023-11-22T01:08:19;1.80;99.90
20700;DHT22;10511;51.232;9.420;2023-11-22T01:10:46;1.70;99.90
20700;DHT22;10511;51.232;9.420;2023-11-22T01:13:13;1.70;99.90
20700;DHT22;10511;51.232;9.420;2023-11-22T01:15:42;1.70;99.90
20700;DHT22;10511;51.232;9.420;2023-11-22T01:18:10;1.60;99.90
20700;DHT22;10511;51.232;9.420;2023-11-22T01:20:37;1.60;99.90
20700;DHT22;10511;51.232;9.420;2023-11-22T01:23:04;1.60;99.90
20700;DHT22;10511;51.232;9.420;2023-11-22T01:25:31;1.50;99.90
20700;DHT22;10511;51.232;9.420;2023-11-22T01:27:58;1.50;99.90
20700;DHT22;10511;51.232;9.420;2023-11-22T01:30:26;1.50;99.90
20700;DHT22;10511;51.232;9.420;2023-11-22T01:32:55;1.50;99.90
20700;DHT22;10511;51.232;9.420;2023-11-22T01:35:22;1.50;99.90
20700;DHT22;10511;51.232;9.420;2023-11-22T01:37:49;1.50;99.90
20700;DHT22;10511;51.232;9.420;2023-11-22T01:40:17;1.50;99.90
20700;DHT22;10511;51.232;9.420;2023-11-22T01:42:45;1.50;99.90
20700;DHT22;10511;51.232;9.420;2023-11-22T01:45:12;1.40;99.90
20700;DHT22;10511;51.232;9.420;2023-11-22T01:47:39;1.40;99.90
20700;DHT22;10511;51.232;9.420;2023-11-22T01:50:09;1.40;99.90
20700;DHT22;10511;51.232;9.420;2023-11-22T01:52:36;1.40;99.90
20700;DHT22;10511;51.232;9.420;2023-11-22T01:55:05;1.40;99.90
20700;DHT22;10511;51.232;9.420;2023-11-22T01:57:34;1.30;99.90
20700;DHT22;10511;51.232;9.420;2023-11-22T02:00:03;1.30;99.90
20700;DHT22;10511;51.232;9.420;2023-11-22T02:02:33;1.30;99.90
20700;DHT22;10511;51.232;9.420;2023-11-22T02:05:00;1.30;99.90
20700;DHT22;10511;51.232;9.420;2023-11-22T02:07:30;1.30;99.90
20700;DHT22;10511;51.232;9.420;2023-11-22T02:09:58;1.20;99.90
20700;DHT22;10511;51.232;9.420;2023-11-22T02:12:25;1.20;99.90
20700;DHT22;10511;51.232;9.420;2023-11-22T02:14:52;1.20;99.90
20700;DHT22;10511;51.232;9.420;2023-11-22T02:17:19;1.20;99.90
20700;DHT22;10511;51.232;9.420;2023-11-22T02:19:46;1.20;99.90
20700;DHT22;10511;51.232;9.420;2023-11-22T02:22:13;1.20;99.90
20700;DHT22;10511;51.232;9.420;2023-11-22T02:24:42;1.20;99.90
20700;DHT22;10511;51.232;9.420;2023-11-22T02:27:09;1.20;99.90
20700;DHT22;10511;51.232;9.420;2023-11-22T02:29:36;1.30;99.90
20700;DHT22;10511;51.232;9.420;2023-11-22T02:32:04;1.20;99.90
20700;DHT22;10511;51.232;9.420;2023-11-22T02:34:31;1.20;99.90
20700;DHT22;10511;51.232;9.420;2023-11-22T02:36:58;1.20;99.90
20700;DHT22;10511;51.232;9.420;2023-11-22T02:39:35;1.20;99.90
20700;DHT22;10511;51.232;9.420;2023-11-22T02:42:11;1.20;99.90
20700;DHT22;10511;51.232;9.420;2023-11-22T02:44:39;1.20;99.90
20700;DHT22;10511;51.232;9.420;2023-11-22T02:47:06;1.10;99.90
20700;DHT22;10511;51.232;9.420;2023-11-22T02:49:33;1.10;99.90
20700;DHT22;10511;51.232;9.420;2023-11-22T02:51:59;1.10;99.90
20700;DHT22;10511;51.232;9.420;2023-11-22T02:54:27;1.10;99.90
20700;DHT22;10511;51.232;9.420;2023-11-22T02:56:59;1.10;99.90
20700;DHT22;10511;51.232;9.420;2023-11-22T02:59:29;1.10;99.90
20700;DHT22;10511;51.232;9.420;2023-11-22T03:01:56;1.10;99.90
20700;DHT22;10511;51.232;9.420;2023-11-22T03:04:22;1.10;99.90
20700;DHT22;10511;51.232;9.420;2023-11-22T03:06:50;1.10;99.90
20700;DHT22;10511;51.232;9.420;2023-11-22T03:09:17;1.10;99.90
20700;DHT22;10511;51.232;9.420;2023-11-22T03:11:44;1.10;99.90
20700;DHT22;10511;51.232;9.420;2023-11-22T03:14:11;1.00;99.90
20700;DHT22;10511;51.232;9.420;2023-11-22T03:16:40;1.00;99.90
20700;DHT22;10511;51.232;9.420;2023-11-22T03:19:08;1.00;99.90
20700;DHT22;10511;51.232;9.420;2023-11-22T03:21:36;0.90;99.90
20700;DHT22;10511;51.232;9.420;2023-11-22T03:24:03;1.00;99.90
20700;DHT22;10511;51.232;9.420;2023-11-22T03:26:30;0.90;99.90
20700;DHT22;10511;51.232;9.420;2023-11-22T03:28:58;0.90;99.90
20700;DHT22;10511;51.232;9.420;2023-11-22T03:31:24;0.90;99.90
20700;DHT22;10511;51.232;9.420;2023-11-22T03:33:53;0.90;99.90
20700;DHT22;10511;51.232;9.420;2023-11-22T03:36:20;0.90;99.90
20700;DHT22;10511;51.232;9.420;2023-11-22T03:38:48;0.90;99.90
20700;DHT22;10511;51.232;9.420;2023-11-22T03:41:15;0.90;99.90
20700;DHT22;10511;51.232;9.420;2023-11-22T03:43:42;0.90;99.90
20700;DHT22;10511;51.232;9.420;2023-11-22T03:46:09;0.90;99.90
20700;DHT22;10511;51.232;9.420;2023-11-22T03:48:37;0.90;99.90
20700;DHT22;10511;51.232;9.420;2023-11-22T03:51:05;0.90;99.90
20700;DHT22;10511;51.232;9.420;2023-11-22T03:53:32;0.90;99.90
20700;DHT22;10511;51.232;9.420;2023-11-22T03:56:00;0.90;99.90
20700;DHT22;10511;51.232;9.420;2023-11-22T03:58:27;0.90;99.90
20700;DHT22;10511;51.232;9.420;2023-11-22T04:00:54;0.90;99.90
20700;DHT22;10511;51.232;9.420;2023-11-22T04:03:21;0.90;99.90
20700;DHT22;10511;51.232;9.420;2023-11-22T04:05:48;0.80;99.90
20700;DHT22;10511;51.232;9.420;2023-11-22T04:08:16;0.80;99.90
20700;DHT22;10511;51.232;9.420;2023-11-22T04:10:43;0.80;99.90
20700;DHT22;10511;51.232;9.420;2023-11-22T04:13:11;0.70;99.90
20700;DHT22;10511;51.232;9.420;2023-11-22T04:15:38;0.80;99.90
20700;DHT22;10511;51.232;9.420;2023-11-22T04:18:05;0.70;99.90
20700;DHT22;10511;51.232;9.420;2023-11-22T04:20:32;0.70;99.90
20700;DHT22;10511;51.232;9.420;2023-11-22T04:22:58;0.70;99.90
20700;DHT22;10511;51.232;9.420;2023-11-22T04:25:28;0.70;99.90
20700;DHT22;10511;51.232;9.420;2023-11-22T04:27:54;0.70;99.90
20700;DHT22;10511;51.232;9.420;2023-11-22T04:30:21;0.70;99.90
20700;DHT22;10511;51.232;9.420;2023-11-22T04:32:48;0.70;99.90
20700;DHT22;10511;51.232;9.420;2023-11-22T04:35:15;0.70;99.90
20700;DHT22;10511;51.232;9.420;2023-11-22T04:37:42;0.70;99.90
20700;DHT22;10511;51.232;9.420;2023-11-22T04:40:10;0.60;99.90
20700;DHT22;10511;51.232;9.420;2023-11-22T04:42:40;0.60;99.90
20700;DHT22;10511;51.232;9.420;2023-11-22T04:45:08;0.60;99.90
20700;DHT22;10511;51.232;9.420;2023-11-22T04:47:35;0.60;99.90
20700;DHT22;10511;51.232;9.420;2023-11-22T04:50:02;0.60;99.90
20700;DHT22;10511;51.232;9.420;2023-11-22T04:52:30;0.50;99.90
20700;DHT22;10511;51.232;9.420;2023-11-22T04:54:58;0.50;99.90
20700;DHT22;10511;51.232;9.420;2023-11-22T04:57:28;0.50;99.90
20700;DHT22;10511;51.232;9.420;2023-11-22T04:59:56;0.50;99.90
20700;DHT22;10511;51.232;9.420;2023-11-22T05:02:23;0.40;99.90
20700;DHT22;10511;51.232;9.420;2023-11-22T05:04:52;0.40;99.90
20700;DHT22;10511;51.232;9.420;2023-11-22T05:07:19;0.30;99.90
20700;DHT22;10511;51.232;9.420;2023-11-22T05:09:46;0.30;99.90
20700;DHT22;10511;51.232;9.420;2023-11-22T05:12:13;0.30;99.90
20700;DHT22;10511;51.232;9.420;2023-11-22T05:14:40;0.30;99.90
20700;DHT22;10511;51.232;9.420;2023-11-22T05:17:10;0.30;99.90
20700;DHT22;10511;51.232;9.420;2023-11-22T05:19:37;0.30;99.90
20700;DHT22;10511;51.232;9.420;2023-11-22T05:22:05;0.20;99.90
20700;DHT22;10511;51.232;9.420;2023-11-22T05:24:33;0.20;99.90
20700;DHT22;10511;51.232;9.420;2023-11-22T05:27:00;0.20;99.90
20700;DHT22;10511;51.232;9.420;2023-11-22T05:29:27;0.20;99.90
20700;DHT22;10511;51.232;9.420;2023-11-22T05:31:54;0.10;99.90
20700;DHT22;10511;51.232;9.420;2023-11-22T05:34:22;0.10;99.90
20700;DHT22;10511;51.232;9.420;2023-11-22T05:36:49;0.00;99.90
20700;DHT22;10511;51.232;9.420;2023-11-22T05:39:16;0.00;99.90
20700;DHT22;10511;51.232;9.420;2023-11-22T05:41:44;0.00;99.90
20700;DHT22;10511;51.232;9.420;2023-11-22T05:44:12;0.00;99.90
20700;DHT22;10511;51.232;9.420;2023-11-22T05:46:39;0.00;99.90
20700;DHT22;10511;51.232;9.420;2023-11-22T05:49:05;0.00;99.90
20700;DHT22;10511;51.232;9.420;2023-11-22T05:51:34;0.00;99.90
20700;DHT22;10511;51.232;9.420;2023-11-22T05:54:01;0.00;99.90
20700;DHT22;10511;51.232;9.420;2023-11-22T05:56:28;0.00;99.90
20700;DHT22;10511;51.232;9.420;2023-11-22T05:58:54;0.00;99.90
20700;DHT22;10511;51.232;9.420;2023-11-22T06:01:21;-0.10;99.90
20700;DHT22;10511;51.232;9.420;2023-11-22T06:03:48;-0.10;99.90
20700;DHT22;10511;51.232;9.420;2023-11-22T06:06:15;-0.10;99.90
20700;DHT22;10511;51.232;9.420;2023-11-22T06:08:44;-0.10;99.90
20700;DHT22;10511;51.232;9.420;2023-11-22T06:11:10;-0.10;99.90
20700;DHT22;10511;51.232;9.420;2023-11-22T06:13:39;-0.10;99.90
20700;DHT22;10511;51.232;9.420;2023-11-22T06:16:06;-0.10;99.90
20700;DHT22;10511;51.232;9.420;2023-11-22T06:18:33;-0.10;99.90
20700;DHT22;10511;51.232;9.420;2023-11-22T06:21:05;-0.10;99.90
20700;DHT22;10511;51.232;9.420;2023-11-22T06:23:32;-0.10;99.90
20700;DHT22;10511;51.232;9.420;2023-11-22T06:26:01;-0.10;99.90
20700;DHT22;10511;51.232;9.420;2023-11-22T06:28:27;-0.10;99.90
20700;DHT22;10511;51.232;9.420;2023-11-22T06:30:55;-0.20;99.90
20700;DHT22;10511;51.232;9.420;2023-11-22T06:33:21;-0.20;99.90
20700;DHT22;10511;51.232;9.420;2023-11-22T06:35:48;-0.20;99.90
20700;DHT22;10511;51.232;9.420;2023-11-22T06:38:15;-0.20;99.90
20700;DHT22;10511;51.232;9.420;2023-11-22T06:40:42;-0.10;99.90
20700;DHT22;10511;51.232;9.420;2023-11-22T06:43:11;-0.10;99.90
20700;DHT22;10511;51.232;9.420;2023-11-22T06:45:38;-0.10;99.90
20700;DHT22;10511;51.232;9.420;2023-11-22T06:48:05;-0.10;99.90
20700;DHT22;10511;51.232;9.420;2023-11-22T06:50:32;-0.10;99.90
20700;DHT22;10511;51.232;9.420;2023-11-22T06:52:59;-0.10;99.90
20700;DHT22;10511;51.232;9.420;2023-11-22T06:55:25;-0.20;99.90
20700;DHT22;10511;51.232;9.420;2023-11-22T06:57:53;-0.10;99.90
20700;DHT22;10511;51.232;9.420;2023-11-22T07:00:21;0.00;99.90
20700;DHT22;10511;51.232;9.420;2023-11-22T07:02:48;0.00;99.90
20700;DHT22;10511;51.232;9.420;2023-11-22T07:05:16;-0.10;99.90
20700;DHT22;10511;51.232;9.420;2023-11-22T07:07:44;-0.10;99.90
20700;DHT22;10511;51.232;9.420;2023-11-22T07:10:12;-0.10;99.90
20700;DHT22;10511;51.232;9.420;2023-11-22T07:12:39;-0.10;99.90
20700;DHT22;10511;51.232;9.420;2023-11-22T07:15:09;-0.10;99.90
20700;DHT22;10511;51.232;9.420;2023-11-22T07:17:38;-0.10;99.90
20700;DHT22;10511;51.232;9.420;2023-11-22T07:20:06;-0.10;99.90
20700;DHT22;10511;51.232;9.420;2023-11-22T07:22:35;-0.10;99.90
20700;DHT22;10511;51.232;9.420;2023-11-22T07:25:02;-0.10;99.90
20700;DHT22;10511;51.232;9.420;2023-11-22T07:27:29;0.00;99.90
20700;DHT22;10511;51.232;9.420;2023-11-22T07:29:57;0.30;99.90
20700;DHT22;10511;51.232;9.420;2023-11-22T07:32:24;0.20;99.90
20700;DHT22;10511;51.232;9.420;2023-11-22T07:34:52;0.40;99.90
20700;DHT22;10511;51.232;9.420;2023-11-22T07:37:21;0.60;99.90
20700;DHT22;10511;51.232;9.420;2023-11-22T07:39:49;0.60;99.90
20700;DHT22;10511;51.232;9.420;2023-11-22T07:42:16;0.40;99.90
20700;DHT22;10511;51.232;9.420;2023-11-22T07:44:43;0.40;99.90
20700;DHT22;10511;51.232;9.420;2023-11-22T07:47:11;0.20;99.90
20700;DHT22;10511;51.232;9.420;2023-11-22T07:49:39;0.20;99.90
20700;DHT22;10511;51.232;9.420;2023-11-22T07:52:08;0.20;99.90
20700;DHT22;10511;51.232;9.420;2023-11-22T07:54:39;0.20;99.90
20700;DHT22;10511;51.232;9.420;2023-11-22T07:57:06;0.20;99.90
20700;DHT22;10511;51.232;9.420;2023-11-22T07:59:33;0.20;99.90
20700;DHT22;10511;51.232;9.420;2023-11-22T08:02:00;0.20;99.90
20700;DHT22;10511;51.232;9.420;2023-11-22T08:04:28;0.30;99.90
20700;DHT22;10511;51.232;9.420;2023-11-22T08:06:57;0.30;99.90
20700;DHT22;10511;51.232;9.420;2023-11-22T08:09:26;0.30;99.90
20700;DHT22;10511;51.232;9.420;2023-11-22T08:11:56;0.40;99.90
20700;DHT22;10511;51.232;9.420;2023-11-22T08:14:23;0.50;99.90
20700;DHT22;10511;51.232;9.420;2023-11-22T08:16:53;0.40;99.90
20700;DHT22;10511;51.232;9.420;2023-11-22T08:19:20;0.40;99.90
20700;DHT22;10511;51.232;9.420;2023-11-22T08:21:48;0.40;99.90
20700;DHT22;10511;51.232;9.420;2023-11-22T08:24:15;0.40;99.90
20700;DHT22;10511;51.232;9.420;2023-11-22T08:26:43;0.40;99.90
20700;DHT22;10511;51.232;9.420;2023-11-22T08:29:10;0.40;99.90
20700;DHT22;10511;51.232;9.420;2023-11-22T08:31:37;0.40;99.90
20700;DHT22;10511;51.232;9.420;2023-11-22T08:34:04;0.40;99.90
20700;DHT22;10511;51.232;9.420;2023-11-22T08:36:32;0.50;99.90
20700;DHT22;10511;51.232;9.420;2023-11-22T08:39:00;0.50;99.90
20700;DHT22;10511;51.232;9.420;2023-11-22T08:41:27;0.50;99.90
20700;DHT22;10511;51.232;9.420;2023-11-22T08:43:57;0.50;99.90
20700;DHT22;10511;51.232;9.420;2023-11-22T08:46:24;0.70;99.90
20700;DHT22;10511;51.232;9.420;2023-11-22T08:48:51;0.80;99.90
20700;DHT22;10511;51.232;9.420;2023-11-22T08:51:18;0.80;99.90
20700;DHT22;10511;51.232;9.420;2023-11-22T08:53:45;1.00;99.90
20700;DHT22;10511;51.232;9.420;2023-11-22T08:56:12;1.10;99.90
20700;DHT22;10511;51.232;9.420;2023-11-22T08:58:39;1.20;99.90
20700;DHT22;10511;51.232;9.420;2023-11-22T09:01:08;1.20;99.90
20700;DHT22;10511;51.232;9.420;2023-11-22T09:03:36;1.00;99.90
20700;DHT22;10511;51.232;9.420;2023-11-22T09:06:03;1.00;99.90
20700;DHT22;10511;51.232;9.420;2023-11-22T09:08:32;0.90;99.90
20700;DHT22;10511;51.232;9.420;2023-11-22T09:11:01;0.90;99.90
20700;DHT22;10511;51.232;9.420;2023-11-22T09:13:31;0.90;99.90
20700;DHT22;10511;51.232;9.420;2023-11-22T09:15:58;0.90;99.90
20700;DHT22;10511;51.232;9.420;2023-11-22T09:18:26;1.00;99.90
20700;DHT22;10511;51.232;9.420;2023-11-22T09:20:53;1.00;99.90
20700;DHT22;10511;51.232;9.420;2023-11-22T09:23:20;1.00;99.90
20700;DHT22;10511;51.232;9.420;2023-11-22T09:25:49;1.10;99.90
20700;DHT22;10511;51.232;9.420;2023-11-22T09:28:16;1.10;99.90
20700;DHT22;10511;51.232;9.420;2023-11-22T09:30:45;1.20;99.90
20700;DHT22;10511;51.232;9.420;2023-11-22T09:33:15;1.20;99.90
20700;DHT22;10511;51.232;9.420;2023-11-22T09:35:44;1.20;99.90
20700;DHT22;10511;51.232;9.420;2023-11-22T09:38:12;1.20;99.90
20700;DHT22;10511;51.232;9.420;2023-11-22T09:40:42;1.20;99.90
20700;DHT22;10511;51.232;9.420;2023-11-22T09:43:09;1.30;99.90
20700;DHT22;10511;51.232;9.420;2023-11-22T09:45:36;1.30;99.90
20700;DHT22;10511;51.232;9.420;2023-11-22T09:48:11;1.40;99.90
20700;DHT22;10511;51.232;9.420;2023-11-22T09:50:47;1.40;99.90
20700;DHT22;10511;51.232;9.420;2023-11-22T09:53:22;1.40;99.90
20700;DHT22;10511;51.232;9.420;2023-11-22T09:55:49;1.40;99.90
20700;DHT22;10511;51.232;9.420;2023-11-22T09:58:16;1.30;99.90
20700;DHT22;10511;51.232;9.420;2023-11-22T10:00:45;1.30;99.90
20700;DHT22;10511;51.232;9.420;2023-11-22T10:03:13;1.30;99.90
20700;DHT22;10511;51.232;9.420;2023-11-22T10:05:42;1.40;99.90
20700;DHT22;10511;51.232;9.420;2023-11-22T10:08:10;1.40;99.90
20700;DHT22;10511;51.232;9.420;2023-11-22T10:10:37;1.30;99.90
20700;DHT22;10511;51.232;9.420;2023-11-22T10:13:05;1.40;99.90
20700;DHT22;10511;51.232;9.420;2023-11-22T10:15:32;1.50;99.90
20700;DHT22;10511;51.232;9.420;2023-11-22T10:18:00;1.50;99.90
20700;DHT22;10511;51.232;9.420;2023-11-22T10:20:36;1.70;99.90
20700;DHT22;10511;51.232;9.420;2023-11-22T10:23:10;1.70;99.90
20700;DHT22;10511;51.232;9.420;2023-11-22T10:25:43;1.70;99.90
20700;DHT22;10511;51.232;9.420;2023-11-22T10:28:10;1.60;99.90
20700;DHT22;10511;51.232;9.420;2023-11-22T10:30:38;1.60;99.90
20700;DHT22;10511;51.232;9.420;2023-11-22T10:33:06;1.60;99.90
20700;DHT22;10511;51.232;9.420;2023-11-22T10:35:33;1.50;99.90
20700;DHT22;10511;51.232;9.420;2023-11-22T10:38:00;1.50;99.90
20700;DHT22;10511;51.232;9.420;2023-11-22T10:40:30;1.50;99.90
20700;DHT22;10511;51.232;9.420;2023-11-22T10:42:57;1.50;99.90
20700;DHT22;10511;51.232;9.420;2023-11-22T10:45:28;1.50;99.90
20700;DHT22;10511;51.232;9.420;2023-11-22T10:47:56;1.50;99.90
20700;DHT22;10511;51.232;9.420;2023-11-22T10:50:23;1.50;99.90
20700;DHT22;10511;51.232;9.420;2023-11-22T10:52:52;1.50;99.90
20700;DHT22;10511;51.232;9.420;2023-11-22T10:55:21;1.60;99.90
20700;DHT22;10511;51.232;9.420;2023-11-22T10:57:56;1.60;99.90
20700;DHT22;10511;51.232;9.420;2023-11-22T11:00:25;1.50;99.90
20700;DHT22;10511;51.232;9.420;2023-11-22T11:02:59;1.40;99.90
20700;DHT22;10511;51.232;9.420;2023-11-22T11:05:30;1.50;99.90
20700;DHT22;10511;51.232;9.420;2023-11-22T11:08:00;1.70;99.90
20700;DHT22;10511;51.232;9.420;2023-11-22T11:10:28;1.80;99.90
20700;DHT22;10511;51.232;9.420;2023-11-22T11:12:59;1.80;99.90
20700;DHT22;10511;51.232;9.420;2023-11-22T11:15:27;1.70;99.90
20700;DHT22;10511;51.232;9.420;2023-11-22T11:17:56;1.80;99.90
20700;DHT22;10511;51.232;9.420;2023-11-22T11:20:23;1.90;99.90
20700;DHT22;10511;51.232;9.420;2023-11-22T11:22:50;2.10;99.90
20700;DHT22;10511;51.232;9.420;2023-11-22T11:25:18;2.30;99.90
20700;DHT22;10511;51.232;9.420;2023-11-22T11:27:55;2.30;99.90
20700;DHT22;10511;51.232;9.420;2023-11-22T11:30:47;2.40;99.90
20700;DHT22;10511;51.232;9.420;2023-11-22T11:33:15;2.30;99.90
20700;DHT22;10511;51.232;9.420;2023-11-22T11:35:44;2.20;99.90
20700;DHT22;10511;51.232;9.420;2023-11-22T11:38:13;2.10;99.90
20700;DHT22;10511;51.232;9.420;2023-11-22T11:40:41;2.10;99.90
20700;DHT22;10511;51.232;9.420;2023-11-22T11:43:08;2.10;99.90
20700;DHT22;10511;51.232;9.420;2023-11-22T11:45:37;2.10;99.90
20700;DHT22;10511;51.232;9.420;2023-11-22T11:48:07;2.30;99.90
20700;DHT22;10511;51.232;9.420;2023-11-22T11:50:34;2.30;99.90
20700;DHT22;10511;51.232;9.420;2023-11-22T11:53:01;2.40;99.90
20700;DHT22;10511;51.232;9.420;2023-11-22T11:55:28;2.50;99.90
20700;DHT22;10511;51.232;9.420;2023-11-22T11:57:55;2.40;99.90
20700;DHT22;10511;51.232;9.420;2023-11-22T12:00:22;2.20;99.90
20700;DHT22;10511;51.232;9.420;2023-11-22T12:02:50;2.10;99.90
20700;DHT22;10511;51.232;9.420;2023-11-22T12:05:22;2.00;99.90
20700;DHT22;10511;51.232;9.420;2023-11-22T12:07:50;2.10;99.90
20700;DHT22;10511;51.232;9.420;2023-11-22T12:10:17;2.30;99.90
20700;DHT22;10511;51.232;9.420;2023-11-22T12:12:44;2.10;99.90
20700;DHT22;10511;51.232;9.420;2023-11-22T12:15:12;1.90;99.90
20700;DHT22;10511;51.232;9.420;2023-11-22T12:17:41;2.00;99.90
20700;DHT22;10511;51.232;9.420;2023-11-22T12:20:11;2.20;99.90
20700;DHT22;10511;51.232;9.420;2023-11-22T12:22:41;2.30;99.90
20700;DHT22;10511;51.232;9.420;2023-11-22T12:25:08;2.50;99.90
20700;DHT22;10511;51.232;9.420;2023-11-22T12:27:39;2.50;99.90
20700;DHT22;10511;51.232;9.420;2023-11-22T12:30:08;2.60;99.90
20700;DHT22;10511;51.232;9.420;2023-11-22T12:32:38;2.60;99.90
20700;DHT22;10511;51.232;9.420;2023-11-22T12:35:07;2.70;99.90
20700;DHT22;10511;51.232;9.420;2023-11-22T12:37:34;2.90;99.90
20700;DHT22;10511;51.232;9.420;2023-11-22T12:40:09;2.90;99.90
20700;DHT22;10511;51.232;9.420;2023-11-22T12:42:47;2.90;99.90
20700;DHT22;10511;51.232;9.420;2023-11-22T12:45:24;2.90;99.90
20700;DHT22;10511;51.232;9.420;2023-11-22T12:47:53;3.10;99.90
20700;DHT22;10511;51.232;9.420;2023-11-22T12:50:33;3.10;99.90
20700;DHT22;10511;51.232;9.420;2023-11-22T12:53:08;3.20;99.90
20700;DHT22;10511;51.232;9.420;2023-11-22T12:55:38;3.20;99.90
20700;DHT22;10511;51.232;9.420;2023-11-22T12:58:06;3.10;99.90
20700;DHT22;10511;51.232;9.420;2023-11-22T13:00:33;3.00;99.90
20700;DHT22;10511;51.232;9.420;2023-11-22T13:03:01;3.00;99.90
20700;DHT22;10511;51.232;9.420;2023-11-22T13:05:28;3.00;99.90
20700;DHT22;10511;51.232;9.420;2023-11-22T13:07:55;2.70;99.90
20700;DHT22;10511;51.232;9.420;2023-11-22T13:10:22;2.60;99.90
20700;DHT22;10511;51.232;9.420;2023-11-22T13:12:53;2.80;99.90
20700;DHT22;10511;51.232;9.420;2023-11-22T13:15:20;2.90;99.90
20700;DHT22;10511;51.232;9.420;2023-11-22T13:17:49;2.90;99.90
20700;DHT22;10511;51.232;9.420;2023-11-22T13:20:23;2.90;99.90
20700;DHT22;10511;51.232;9.420;2023-11-22T13:22:51;3.00;99.90
20700;DHT22;10511;51.232;9.420;2023-11-22T13:25:18;3.00;99.90
20700;DHT22;10511;51.232;9.420;2023-11-22T13:27:46;2.60;99.90
20700;DHT22;10511;51.232;9.420;2023-11-22T13:30:15;2.50;99.90
20700;DHT22;10511;51.232;9.420;2023-11-22T13:32:44;2.50;99.90
20700;DHT22;10511;51.232;9.420;2023-11-22T13:35:12;2.50;99.90
20700;DHT22;10511;51.232;9.420;2023-11-22T13:37:44;2.60;99.90
20700;DHT22;10511;51.232;9.420;2023-11-22T13:40:12;2.70;99.90
20700;DHT22;10511;51.232;9.420;2023-11-22T13:42:41;2.60;99.90
20700;DHT22;10511;51.232;9.420;2023-11-22T13:45:09;2.70;99.90
20700;DHT22;10511;51.232;9.420;2023-11-22T13:47:38;2.90;99.90
20700;DHT22;10511;51.232;9.420;2023-11-22T13:50:05;2.90;99.90
20700;DHT22;10511;51.232;9.420;2023-11-22T13:52:33;2.80;99.90
20700;DHT22;10511;51.232;9.420;2023-11-22T13:55:00;2.80;99.90
20700;DHT22;10511;51.232;9.420;2023-11-22T13:57:30;2.80;99.90
20700;DHT22;10511;51.232;9.420;2023-11-22T13:59:58;3.00;99.90
20700;DHT22;10511;51.232;9.420;2023-11-22T14:02:25;3.00;99.90
20700;DHT22;10511;51.232;9.420;2023-11-22T14:04:53;3.00;99.90
20700;DHT22;10511;51.232;9.420;2023-11-22T14:07:20;2.90;99.90
20700;DHT22;10511;51.232;9.420;2023-11-22T14:09:47;2.90;99.90
20700;DHT22;10511;51.232;9.420;2023-11-22T14:12:15;2.90;99.90
20700;DHT22;10511;51.232;9.420;2023-11-22T14:14:44;2.90;99.90
20700;DHT22;10511;51.232;9.420;2023-11-22T14:17:11;2.80;99.90
20700;DHT22;10511;51.232;9.420;2023-11-22T14:19:39;2.80;99.90
20700;DHT22;10511;51.232;9.420;2023-11-22T14:22:08;2.80;99.90
20700;DHT22;10511;51.232;9.420;2023-11-22T14:24:35;2.80;99.90
20700;DHT22;10511;51.232;9.420;2023-11-22T14:27:05;2.60;99.90
20700;DHT22;10511;51.232;9.420;2023-11-22T14:29:31;2.60;99.90
20700;DHT22;10511;51.232;9.420;2023-11-22T14:31:59;2.70;99.90
20700;DHT22;10511;51.232;9.420;2023-11-22T14:34:26;2.80;99.90
20700;DHT22;10511;51.232;9.420;2023-11-22T14:36:52;2.80;99.90
20700;DHT22;10511;51.232;9.420;2023-11-22T14:39:21;2.80;99.90
20700;DHT22;10511;51.232;9.420;2023-11-22T14:41:49;2.80;99.90
20700;DHT22;10511;51.232;9.420;2023-11-22T14:44:16;2.90;99.90
20700;DHT22;10511;51.232;9.420;2023-11-22T14:46:44;2.90;99.90
20700;DHT22;10511;51.232;9.420;2023-11-22T14:49:11;2.80;99.90
20700;DHT22;10511;51.232;9.420;2023-11-22T14:51:39;2.80;99.90
20700;DHT22;10511;51.232;9.420;2023-11-22T14:54:06;2.70;99.90
20700;DHT22;10511;51.232;9.420;2023-11-22T14:56:35;2.70;99.90
20700;DHT22;10511;51.232;9.420;2023-11-22T14:59:03;2.70;99.90
20700;DHT22;10511;51.232;9.420;2023-11-22T15:01:29;2.70;99.90
20700;DHT22;10511;51.232;9.420;2023-11-22T15:03:56;2.70;99.90
20700;DHT22;10511;51.232;9.420;2023-11-22T15:06:24;2.70;99.90
20700;DHT22;10511;51.232;9.420;2023-11-22T15:08:50;2.70;99.90
20700;DHT22;10511;51.232;9.420;2023-11-22T15:11:18;2.80;99.90
20700;DHT22;10511;51.232;9.420;2023-11-22T15:13:46;2.80;99.90
20700;DHT22;10511;51.232;9.420;2023-11-22T15:16:13;2.90;99.90
20700;DHT22;10511;51.232;9.420;2023-11-22T15:18:41;2.90;99.90
20700;DHT22;10511;51.232;9.420;2023-11-22T15:21:08;2.80;99.90
20700;DHT22;10511;51.232;9.420;2023-11-22T15:23:35;2.80;99.90
20700;DHT22;10511;51.232;9.420;2023-11-22T15:26:02;2.80;99.90
20700;DHT22;10511;51.232;9.420;2023-11-22T15:28:29;2.80;99.90
20700;DHT22;10511;51.232;9.420;2023-11-22T15:30:58;2.80;99.90
20700;DHT22;10511;51.232;9.420;2023-11-22T15:33:26;2.90;99.90
20700;DHT22;10511;51.232;9.420;2023-11-22T15:35:53;2.90;99.90
20700;DHT22;10511;51.232;9.420;2023-11-22T15:38:20;2.80;99.90
20700;DHT22;10511;51.232;9.420;2023-11-22T15:40:48;2.80;99.90
20700;DHT22;10511;51.232;9.420;2023-11-22T15:43:15;2.70;99.90
20700;DHT22;10511;51.232;9.420;2023-11-22T15:45:42;2.60;99.90
20700;DHT22;10511;51.232;9.420;2023-11-22T15:48:11;2.60;99.90
20700;DHT22;10511;51.232;9.420;2023-11-22T15:50:40;2.60;99.90